Аэропорт: Магнитогорск. Магнитогорск

ICAO: USCM

METAR:
2024-04-22 21:30:00
USCM 222130Z 35004MPS 9999 NSC 11/09 Q1023 R36/090060 NOSIG RMK QFE728
TAF:
Информация по данной станции не доступна